Time;durP1;ratioP1;P1;durP2;ratioP2;P2;SDS_P1;SDS_P2;PMS_P1;PMS_P2;Temp;Humidity;BMP_temperature;BMP_pressure;BME280_temperature;BME280_humidity;BME280_pressure;Samples;Min_cycle;Max_cycle;Signal;HPM_P1;HPM_P2
2021/09/05 00:02:21;;;;;;;9.93;4.72;;;;;;;7.99;73.97;100942.02;1765931;81;21358;-55
2021/09/05 00:05:28;;;;;;;15.32;5.60;;;;;;;8.00;74.02;100939.14;1772213;80;21197;-54
2021/09/05 00:08:34;;;;;;;8.88;4.35;;;;;;;8.05;73.94;100945.52;1772811;81;21382;-54
2021/09/05 00:11:39;;;;;;;9.08;3.70;;;;;;;8.05;73.77;100938.70;1753203;81;21729;-55
2021/09/05 00:14:45;;;;;;;8.65;4.58;;;;;;;8.04;73.57;100938.35;1772394;80;21236;-55
2021/09/05 00:17:52;;;;;;;7.78;4.12;;;;;;;7.99;73.48;100940.12;1772653;81;21189;-54
2021/09/05 00:20:57;;;;;;;11.75;4.65;;;;;;;7.91;73.59;100936.42;1772370;80;21212;-55
2021/09/05 00:24:03;;;;;;;9.35;4.25;;;;;;;7.88;73.79;100942.17;1772670;81;21362;-55
2021/09/05 00:27:08;;;;;;;8.00;4.12;;;;;;;7.85;73.78;100939.73;1772688;81;21381;-55
2021/09/05 00:30:15;;;;;;;5.83;3.92;;;;;;;7.82;73.94;100949.05;1772631;81;21366;-54
2021/09/05 00:33:20;;;;;;;13.48;4.80;;;;;;;7.81;73.93;100950.55;1772378;81;21370;-55
2021/09/05 00:36:28;;;;;;;9.98;4.17;;;;;;;7.80;74.15;100958.39;1772621;81;21188;-54
2021/09/05 00:39:35;;;;;;;10.00;4.35;;;;;;;7.81;74.11;100951.91;1772482;80;21346;-53
2021/09/05 00:42:40;;;;;;;9.90;4.87;;;;;;;7.84;74.04;100961.16;1772633;81;21366;-55
2021/09/05 00:45:46;;;;;;;10.10;5.33;;;;;;;7.79;73.81;100967.05;1772804;81;21260;-55
2021/09/05 00:48:53;;;;;;;9.95;4.90;;;;;;;7.75;73.84;100960.67;1772703;81;21315;-55
2021/09/05 00:52:00;;;;;;;11.00;4.70;;;;;;;7.73;74.01;100961.31;1772591;81;21244;-56
2021/09/05 00:55:07;;;;;;;9.05;5.33;;;;;;;7.74;74.01;100963.05;1772665;81;21200;-55
2021/09/05 00:58:14;;;;;;;13.05;5.30;;;;;;;7.71;74.03;100970.16;1774118;81;21346;-56
2021/09/05 01:01:20;;;;;;;10.58;4.85;;;;;;;7.73;74.18;100963.55;1772633;81;21709;-55
2021/09/05 01:04:27;;;;;;;9.98;4.87;;;;;;;7.74;73.80;100962.53;1753191;80;21366;-54
2021/09/05 01:07:34;;;;;;;9.15;4.97;;;;;;;7.71;73.79;100966.07;1770798;81;21184;-54
2021/09/05 01:10:40;;;;;;;8.70;4.60;;;;;;;7.66;73.70;100963.75;1770673;81;21267;-55
2021/09/05 01:13:45;;;;;;;8.48;4.40;;;;;;;7.61;73.79;100976.44;1770583;81;21165;-54
2021/09/05 01:16:52;;;;;;;6.65;4.12;;;;;;;7.60;74.01;100977.45;1770464;81;21347;-54
2021/09/05 01:20:00;;;;;;;7.58;4.70;;;;;;;7.61;74.10;100980.53;1770833;80;21255;-55
2021/09/05 01:23:19;;;;;;;9.23;4.30;;;;;;;7.59;74.02;100977.60;1771061;80;21342;-55
2021/09/05 01:26:44;;;;;;;6.65;4.10;;;;;;;7.56;74.11;100981.45;1770771;81;21371;-54
2021/09/05 01:29:58;;;;;;;7.42;4.40;;;;;;;7.59;74.31;100989.86;1761212;81;21363;-54
2021/09/05 01:33:17;;;;;;;8.55;4.33;;;;;;;7.57;74.20;100988.64;1770730;80;21251;-55
2021/09/05 01:36:42;;;;;;;7.53;4.15;;;;;;;7.59;74.19;100999.40;1770563;81;21168;-55
2021/09/05 01:40:05;;;;;;;7.78;4.50;;;;;;;7.53;73.96;101002.17;1767892;80;22006;-56
2021/09/05 01:43:20;;;;;;;9.23;4.85;;;;;;;7.44;74.03;100996.22;1770676;81;21197;-56
2021/09/05 01:46:39;;;;;;;7.97;4.40;;;;;;;7.43;74.19;101001.80;1739126;81;21713;-56
2021/09/05 01:49:56;;;;;;;12.85;4.62;;;;;;;7.41;74.26;101000.59;1768336;81;21450;-55
2021/09/05 01:53:19;;;;;;;9.93;4.95;;;;;;;7.42;74.28;101006.37;1770850;81;21195;-55
2021/09/05 01:56:29;;;;;;;9.75;4.87;;;;;;;7.42;74.42;101006.37;1771033;80;21801;-55
2021/09/05 01:59:36;;;;;;;10.98;5.50;;;;;;;7.41;74.21;101004.67;1771159;80;21354;-54
2021/09/05 02:02:51;;;;;;;8.55;5.08;;;;;;;7.40;74.23;101008.38;1770585;80;21345;-54
2021/09/05 02:06:00;;;;;;;10.38;5.45;;;;;;;7.36;74.30;101002.86;1767877;81;21342;-55
2021/09/05 02:09:10;;;;;;;9.13;5.10;;;;;;;7.34;74.11;101011.66;1767865;81;21259;-55
2021/09/05 02:12:36;;;;;;;10.45;5.00;;;;;;;7.26;74.15;101016.95;1697997;84;21212;-55
2021/09/05 02:15:44;;;;;;;13.38;5.60;;;;;;;7.27;74.17;101020.05;1697738;84;21272;-54
2021/09/05 02:19:10;;;;;;;9.65;5.20;;;;;;;7.36;73.96;101018.33;1863510;75;22277;-54
2021/09/05 02:22:24;;;;;;;11.00;4.95;;;;;;;7.31;73.76;101020.61;1771054;79;21259;-55
2021/09/05 02:25:37;;;;;;;11.55;4.87;;;;;;;7.20;73.45;101035.20;1768929;80;21292;-55
2021/09/05 02:28:59;;;;;;;10.75;5.95;;;;;;;7.07;73.41;101035.11;1731021;80;21209;-55
2021/09/05 02:32:08;;;;;;;13.53;5.17;;;;;;;6.96;73.77;101026.52;1768561;81;21745;-54
2021/09/05 02:35:26;;;;;;;12.70;5.67;;;;;;;6.89;74.01;101043.05;1768580;80;21212;-55
2021/09/05 02:38:47;;;;;;;;;;;;;;;6.89;74.42;101036.73;1771002;79;21209;-55
2021/09/05 02:41:57;;;;;;;11.57;5.75;;;;;;;6.92;74.49;101039.19;1777520;79;20240;-54
2021/09/05 02:45:10;;;;;;;15.55;6.05;;;;;;;6.93;74.58;101049.93;1739401;79;21426;-54
2021/09/05 02:48:35;;;;;;;10.00;4.78;;;;;;;6.93;74.31;101053.17;1733573;82;21347;-55
2021/09/05 02:51:42;;;;;;;9.08;4.70;;;;;;;6.92;74.39;101056.88;1692105;85;21223;-55
2021/09/05 02:55:05;;;;;;;13.60;5.67;;;;;;;6.88;74.13;101057.64;1801631;78;21347;-55
2021/09/05 02:58:28;;;;;;;10.23;4.60;;;;;;;6.87;74.38;101064.09;1801752;79;21315;-55
2021/09/05 03:01:35;;;;;;;10.38;5.12;;;;;;;6.84;74.05;101067.09;1755147;79;21305;-56
2021/09/05 03:04:51;;;;;;;10.18;5.05;;;;;;;6.80;74.09;101070.22;1768487;80;21205;-54
2021/09/05 03:08:12;;;;;;;11.20;4.83;;;;;;;6.76;74.35;101068.25;1680321;84;21198;-55
2021/09/05 03:11:19;;;;;;;8.33;4.47;;;;;;;6.78;74.61;101077.16;1768760;79;21185;-55
2021/09/05 03:14:29;;;;;;;11.97;4.90;;;;;;;6.78;74.40;101079.88;1734443;81;21883;-55
2021/09/05 03:17:52;;;;;;;11.93;4.45;;;;;;;6.73;74.32;101079.41;1737706;80;21442;-57
2021/09/05 03:21:08;;;;;;;8.98;5.00;;;;;;;6.74;74.71;101077.56;1748168;80;21288;-54
2021/09/05 03:24:31;;;;;;;12.88;5.28;;;;;;;6.80;74.67;101081.94;1766244;79;21350;-55
2021/09/05 03:27:56;;;;;;;15.32;8.55;;;;;;;6.82;74.43;101088.64;1778920;80;21255;-55
2021/09/05 03:31:19;;;;;;;30.37;19.73;;;;;;;6.77;74.46;101090.89;1778408;80;21165;-54
2021/09/05 03:34:30;;;;;;;27.48;17.73;;;;;;;6.79;74.58;101099.77;1761486;79;21374;-54
2021/09/05 03:37:46;;;;;;;40.83;18.77;;;;;;;6.82;74.35;101099.00;1760379;81;21174;-54
2021/09/05 03:40:53;;;;;;;20.43;11.40;;;;;;;6.80;74.21;101102.87;1763119;80;21339;-56
2021/09/05 03:44:04;;;;;;;35.88;17.65;;;;;;;6.82;74.30;101103.61;1776696;79;21359;-56
2021/09/05 03:47:15;;;;;;;33.88;14.07;;;;;;;6.87;74.50;101110.84;1772605;80;21354;-55
2021/09/05 03:50:34;;;;;;;22.02;11.83;;;;;;;6.91;74.70;101107.71;1772498;79;21352;-55
2021/09/05 03:53:41;;;;;;;29.92;12.68;;;;;;;7.01;74.91;101112.72;1778009;79;21339;-54
2021/09/05 03:56:47;;;;;;;37.17;14.30;;;;;;;7.16;74.99;101114.59;1771215;81;21197;-55
2021/09/05 03:59:57;;;;;;;27.70;12.35;;;;;;;7.28;74.80;101113.48;1775269;79;21363;-57
2021/09/05 04:03:07;;;;;;;15.32;9.10;;;;;;;7.37;74.63;101117.60;1770618;80;21339;-56
2021/09/05 04:06:13;;;;;;;13.58;7.12;;;;;;;7.47;74.44;101119.88;1770394;81;21739;-55
2021/09/05 04:12:27;;;;;;;11.80;6.17;;;;;;;7.69;74.21;101128.84;1736751;80;21659;-56
2021/09/05 04:15:34;;;;;;;15.25;6.58;;;;;;;7.79;74.06;101128.34;1767326;80;22145;-55
2021/09/05 04:18:42;;;;;;;44.65;19.82;;;;;;;7.90;74.02;101123.64;1767405;80;21292;-55
2021/09/05 04:21:49;;;;;;;124.27;48.87;;;;;;;8.05;73.98;101132.28;1768037;80;21410;-55
2021/09/05 04:24:55;;;;;;;122.50;49.23;;;;;;;8.18;73.73;101139.70;1767913;80;21209;-54
2021/09/05 04:28:01;;;;;;;134.63;52.15;;;;;;;8.30;73.25;101135.36;1767882;81;21336;-54
2021/09/05 04:31:07;;;;;;;89.13;38.45;;;;;;;8.41;72.70;101130.25;1768010;80;21257;-55
2021/09/05 04:34:14;;;;;;;90.17;34.67;;;;;;;8.51;72.37;101136.58;1767844;80;21359;-54
2021/09/05 04:37:19;;;;;;;71.82;30.27;;;;;;;8.62;72.12;101145.98;1767423;81;21193;-56
2021/09/05 04:40:24;;;;;;;50.73;22.58;;;;;;;8.73;71.94;101143.09;1767240;80;21844;-55
2021/09/05 04:43:31;;;;;;;32.75;15.45;;;;;;;8.83;71.74;101141.22;1767924;81;21348;-56
2021/09/05 04:46:38;;;;;;;39.33;17.35;;;;;;;8.92;71.65;101145.79;1768015;80;21332;-56
2021/09/05 04:49:43;;;;;;;23.42;11.38;;;;;;;9.01;71.77;101143.05;1767290;80;21395;-55
2021/09/05 04:52:49;;;;;;;18.52;8.73;;;;;;;9.10;71.59;101140.78;1767721;80;21260;-55
2021/09/05 04:55:55;;;;;;;13.65;7.05;;;;;;;9.21;71.42;101149.32;1736983;81;21347;-55
2021/09/05 04:59:00;;;;;;;13.62;6.85;;;;;;;9.32;71.36;101147.77;1736666;81;21359;-55
2021/09/05 05:02:06;;;;;;;13.85;6.72;;;;;;;9.45;71.34;101148.27;1737110;82;21715;-56
2021/09/05 05:05:13;;;;;;;16.67;7.35;;;;;;;9.60;71.42;101152.75;1737320;81;21864;-55
2021/09/05 05:08:17;;;;;;;14.20;6.85;;;;;;;9.73;71.10;101155.51;1728491;82;21335;-57
2021/09/05 05:11:24;;;;;;;14.23;6.72;;;;;;;9.85;70.82;101152.91;1737249;82;21829;-55
2021/09/05 05:14:33;;;;;;;15.50;7.12;;;;;;;9.97;70.61;101150.30;1737338;81;21260;-54
2021/09/05 05:17:41;;;;;;;12.37;6.55;;;;;;;10.10;70.50;101155.47;1737230;81;21260;-53
2021/09/05 05:20:47;;;;;;;11.80;6.03;;;;;;;10.21;70.39;101157.45;1748963;80;21385;-54
2021/09/05 05:23:52;;;;;;;9.35;5.00;;;;;;;10.34;70.47;101158.45;1785347;79;21245;-54
2021/09/05 05:27:00;;;;;;;7.80;4.90;;;;;;;10.49;70.24;101155.53;1779288;80;21199;-55
2021/09/05 05:30:06;;;;;;;8.95;5.25;;;;;;;10.64;69.83;101159.95;1782422;78;21911;-56
2021/09/05 05:33:13;;;;;;;9.30;5.15;;;;;;;10.75;69.90;101156.97;1777845;79;21193;-54
2021/09/05 05:36:19;;;;;;;8.83;4.62;;;;;;;10.87;69.58;101162.53;1800511;79;21849;-55
2021/09/05 05:39:24;;;;;;;9.08;4.95;;;;;;;10.97;69.53;101160.58;1772542;80;21352;-54
2021/09/05 05:42:30;;;;;;;9.15;4.65;;;;;;;11.07;69.11;101165.46;1768349;80;21343;-55
2021/09/05 05:45:36;;;;;;;11.78;5.28;;;;;;;11.15;68.78;101158.63;1774899;79;21209;-55
2021/09/05 05:48:42;;;;;;;9.28;4.62;;;;;;;11.26;68.63;101166.59;1781300;79;21366;-55
2021/09/05 05:51:49;;;;;;;9.03;4.33;;;;;;;11.35;68.27;101168.39;1771607;80;21331;-55
2021/09/05 05:54:55;;;;;;;9.55;3.72;;;;;;;11.47;67.98;101172.56;1768303;80;21854;-55
2021/09/05 05:58:01;;;;;;;8.78;4.30;;;;;;;11.57;67.83;101167.83;1768793;80;21384;-57
2021/09/05 06:01:11;;;;;;;6.65;3.30;;;;;;;11.65;67.44;101168.75;1770824;79;21343;-55
2021/09/05 06:04:20;;;;;;;6.83;3.90;;;;;;;11.73;67.43;101172.06;1768655;80;21190;-56
2021/09/05 06:07:26;;;;;;;8.23;4.22;;;;;;;11.84;67.29;101174.52;1756486;81;21214;-55
2021/09/05 06:10:32;;;;;;;8.85;3.65;;;;;;;11.96;67.16;101174.55;1762110;80;21407;-55
2021/09/05 06:13:38;;;;;;;6.40;3.55;;;;;;;12.11;66.73;101184.39;1769447;80;21170;-55
2021/09/05 06:16:45;;;;;;;4.90;3.08;;;;;;;12.25;66.51;101172.27;1768397;80;21336;-56
2021/09/05 06:19:52;;;;;;;5.20;2.85;;;;;;;12.36;66.36;101176.07;1768089;80;21367;-55
2021/09/05 06:22:57;;;;;;;7.50;3.10;;;;;;;12.45;65.63;101175.05;1768634;78;21332;-56
2021/09/05 06:26:03;;;;;;;5.03;2.80;;;;;;;12.55;65.00;101179.88;1767990;80;21331;-55
2021/09/05 06:29:10;;;;;;;5.15;3.08;;;;;;;12.64;64.45;101180.23;1768192;80;21348;-54
2021/09/05 06:32:16;;;;;;;5.37;3.02;;;;;;;12.74;64.03;101183.69;1768315;80;21312;-55
2021/09/05 06:35:22;;;;;;;5.42;2.80;;;;;;;12.84;63.85;101189.02;1767977;80;21226;-55
2021/09/05 06:38:30;;;;;;;6.05;2.98;;;;;;;12.91;62.98;101186.78;1768153;80;21198;-55
2021/09/05 06:41:37;;;;;;;7.12;3.55;;;;;;;12.98;62.59;101183.70;1774384;80;21181;-56
2021/09/05 06:44:43;;;;;;;6.05;3.10;;;;;;;13.07;62.74;101189.57;1811796;79;21249;-54
2021/09/05 06:47:50;;;;;;;5.05;2.50;;;;;;;13.17;62.18;101189.39;1811195;79;21338;-56
2021/09/05 06:50:57;;;;;;;5.92;2.27;;;;;;;13.27;61.60;101184.59;1804440;79;21308;-55
2021/09/05 06:54:02;;;;;;;4.12;1.75;;;;;;;13.40;60.75;101194.52;1797534;79;21198;-57
2021/09/05 06:57:10;;;;;;;2.98;1.67;;;;;;;13.52;59.75;101202.22;1782061;79;21177;-56
2021/09/05 07:00:17;;;;;;;3.05;1.77;;;;;;;13.65;57.39;101202.22;1796602;79;21774;-54
2021/09/05 07:03:23;;;;;;;6.80;1.90;;;;;;;13.73;55.81;101207.16;1766013;81;21343;-57
2021/09/05 07:06:30;;;;;;;3.17;1.67;;;;;;;13.78;54.93;101203.91;1776253;80;21217;-56
2021/09/05 07:09:35;;;;;;;8.50;4.33;;;;;;;13.81;54.79;101200.80;1755507;80;21355;-57
2021/09/05 07:12:43;;;;;;;12.68;4.87;;;;;;;13.89;54.56;101202.98;1777840;80;21781;-55
2021/09/05 07:15:50;;;;;;;10.98;5.20;;;;;;;13.99;53.43;101206.91;1777159;80;21635;-57
2021/09/05 07:18:56;;;;;;;7.83;3.22;;;;;;;14.08;52.78;101215.50;1734615;82;21316;-56
2021/09/05 07:22:02;;;;;;;5.83;1.60;;;;;;;14.13;51.88;101210.33;1785172;80;21374;-56
2021/09/05 07:25:07;;;;;;;6.92;1.95;;;;;;;14.19;51.97;101215.95;1704400;84;21225;-55
2021/09/05 07:28:15;;;;;;;4.60;2.50;;;;;;;14.30;51.67;101208.70;1709124;82;21191;-56
2021/09/05 07:31:21;;;;;;;2.70;1.40;;;;;;;14.38;51.40;101222.43;1723087;82;21199;-56
2021/09/05 07:34:28;;;;;;;1.55;1.00;;;;;;;14.42;50.26;101224.31;1737773;81;21278;-55
2021/09/05 07:37:34;;;;;;;3.15;1.27;;;;;;;14.40;50.19;101212.61;1746396;82;21685;-58
2021/09/05 07:40:40;;;;;;;3.52;1.55;;;;;;;14.41;49.63;101226.20;1762868;81;21260;-54
2021/09/05 07:43:45;;;;;;;2.62;1.10;;;;;;;14.44;49.37;101205.72;1776366;79;21192;-56
2021/09/05 07:46:52;;;;;;;4.20;1.25;;;;;;;14.47;49.41;101207.59;1748512;81;21202;-55
2021/09/05 07:49:58;;;;;;;3.25;1.50;;;;;;;14.54;49.55;101218.22;1704975;83;21385;-56
2021/09/05 07:53:07;;;;;;;2.55;1.22;;;;;;;14.61;49.36;101210.08;1719007;83;21341;-57
2021/09/05 07:56:14;;;;;;;2.37;1.45;;;;;;;14.67;49.19;101227.27;1704675;83;21803;-56
2021/09/05 07:59:19;;;;;;;2.45;1.20;;;;;;;14.74;48.93;101215.35;1708719;82;21365;-55
2021/09/05 08:02:25;;;;;;;4.28;1.40;;;;;;;14.78;48.01;101219.45;1704682;83;21919;-56
2021/09/05 08:05:31;;;;;;;3.37;1.30;;;;;;;14.86;47.51;101226.28;1705234;82;21377;-57
2021/09/05 08:08:37;;;;;;;2.20;1.20;;;;;;;14.94;47.57;101241.91;1705358;83;21852;-56
2021/09/05 08:11:43;;;;;;;3.60;1.32;;;;;;;14.97;47.23;101224.48;1706130;83;21616;-56
2021/09/05 08:14:49;;;;;;;2.70;1.32;;;;;;;15.01;47.41;101230.49;1720536;82;21863;-55
2021/09/05 08:17:56;;;;;;;3.05;1.00;;;;;;;15.10;46.88;101226.62;1712419;82;21279;-56
2021/09/05 08:21:03;;;;;;;2.20;1.27;;;;;;;15.14;46.68;101222.98;1737386;82;21228;-55
2021/09/05 08:24:09;;;;;;;1.95;1.10;;;;;;;15.16;46.06;101230.02;1750086;79;21852;-57
2021/09/05 08:27:15;;;;;;;2.00;1.10;;;;;;;15.21;46.02;101228.94;1773011;79;21185;-55
2021/09/05 08:30:22;;;;;;;1.72;1.22;;;;;;;15.33;45.90;101230.23;1776935;79;21212;-57
2021/09/05 08:33:29;;;;;;;7.87;1.40;;;;;;;15.37;44.51;101226.55;1768667;81;21335;-58
2021/09/05 08:36:35;;;;;;;2.05;0.85;;;;;;;15.35;44.72;101219.84;1777295;80;21318;-54
2021/09/05 08:39:41;;;;;;;3.35;1.20;;;;;;;15.37;43.73;101232.94;1768752;79;21361;-55
2021/09/05 08:42:49;;;;;;;2.37;1.00;;;;;;;15.30;43.05;101217.33;1777270;80;21188;-58
2021/09/05 08:45:54;;;;;;;2.33;1.10;;;;;;;15.35;43.75;101218.47;1735116;81;21377;-56
2021/09/05 08:49:00;;;;;;;3.60;1.27;;;;;;;15.50;43.72;101218.02;1766834;79;21366;-55
2021/09/05 08:52:07;;;;;;;1.85;1.00;;;;;;;15.68;43.22;101221.27;1777528;78;21695;-56
2021/09/05 08:55:16;;;;;;;1.45;0.98;;;;;;;15.84;43.07;101228.01;1795430;80;21220;-55
2021/09/05 08:58:21;;;;;;;1.40;0.70;;;;;;;16.03;43.52;101224.68;1807295;79;21196;-55
2021/09/05 09:01:28;;;;;;;1.70;1.00;;;;;;;16.18;41.93;101225.55;1764630;81;21244;-56
2021/09/05 09:04:42;;;;;;;3.55;1.00;;;;;;;16.23;41.62;101227.73;1772197;79;21191;-57
2021/09/05 09:07:55;;;;;;;4.25;1.22;;;;;;;16.16;41.51;101228.16;1781626;79;21343;-56
2021/09/05 09:11:06;;;;;;;1.05;0.80;;;;;;;16.13;41.74;101222.50;1799914;79;21189;-57
2021/09/05 09:14:11;;;;;;;1.17;0.75;;;;;;;16.26;41.49;101223.20;1799001;79;21256;-55
2021/09/05 09:17:18;;;;;;;5.12;1.67;;;;;;;16.41;41.31;101234.56;1799111;79;21737;-54
2021/09/05 09:20:41;;;;;;;2.70;0.88;;;;;;;16.52;41.04;101228.25;1798677;79;21657;-57
2021/09/05 09:23:46;;;;;;;1.80;1.15;;;;;;;16.58;39.88;101236.63;1735662;81;21307;-57
2021/09/05 09:27:08;;;;;;;2.25;0.80;;;;;;;16.55;39.39;101225.09;1772657;79;21714;-55
2021/09/05 09:30:20;;;;;;;1.12;0.80;;;;;;;16.58;39.46;101218.66;1784711;79;21379;-55
2021/09/05 09:33:33;;;;;;;3.12;1.00;;;;;;;16.73;40.18;101225.54;1765973;80;21173;-56
2021/09/05 09:36:39;;;;;;;1.30;0.80;;;;;;;16.81;39.90;101223.48;1777609;79;21178;-56
2021/09/05 09:39:56;;;;;;;2.10;1.02;;;;;;;16.80;39.70;101230.59;1799257;78;21212;-55
2021/09/05 09:43:04;;;;;;;1.85;0.95;;;;;;;16.75;39.48;101234.47;1736649;82;21323;-56
2021/09/05 09:46:23;;;;;;;3.42;0.62;;;;;;;16.68;38.98;101228.86;1736905;82;21233;-55
2021/09/05 09:49:29;;;;;;;2.92;1.07;;;;;;;16.68;39.03;101228.86;1737131;81;21367;-54
2021/09/05 09:52:36;;;;;;;3.17;0.80;;;;;;;16.76;37.32;101238.97;1737715;82;21173;-57
2021/09/05 09:55:43;;;;;;;1.17;0.62;;;;;;;16.87;37.96;101231.55;1737708;81;21253;-55
2021/09/05 09:58:49;;;;;;;1.32;0.82;;;;;;;17.04;38.19;101233.00;1739158;81;21343;-54
2021/09/05 10:01:55;;;;;;;1.37;0.82;;;;;;;17.25;37.43;101237.16;1737827;82;21387;-55
2021/09/05 10:05:03;;;;;;;1.95;0.90;;;;;;;17.35;37.14;101236.28;1740869;81;21237;-58
2021/09/05 10:08:10;;;;;;;1.15;0.72;;;;;;;17.55;36.40;101242.90;1737539;82;21441;-54
2021/09/05 10:11:23;;;;;;;1.57;0.80;;;;;;;17.73;35.73;101244.63;1737631;81;21189;-56
2021/09/05 10:14:29;;;;;;;3.15;0.88;;;;;;;17.82;36.61;101256.73;1740017;80;21257;-55
2021/09/05 10:17:36;;;;;;;2.00;1.05;;;;;;;17.65;36.71;101247.55;1782783;80;21260;-54
2021/09/05 10:20:44;;;;;;;2.00;1.00;;;;;;;17.30;37.58;101249.88;1769146;79;21217;-55
2021/09/05 10:23:55;;;;;;;1.82;1.20;;;;;;;16.99;38.34;101250.70;1737437;81;21368;-54
2021/09/05 10:27:14;;;;;;;2.80;1.02;;;;;;;16.81;38.70;101249.77;1743030;80;21221;-55
2021/09/05 10:30:22;;;;;;;2.17;1.22;;;;;;;16.88;38.79;101243.80;1754728;80;21346;-56
2021/09/05 10:33:43;;;;;;;2.30;1.40;;;;;;;17.13;38.25;101239.59;1769354;81;21850;-55
2021/09/05 10:36:52;;;;;;;1.72;0.93;;;;;;;17.42;37.66;101238.08;1769223;81;21299;-54
2021/09/05 10:40:20;;;;;;;1.87;0.75;;;;;;;17.62;36.82;101241.89;1790043;78;21315;-53
2021/09/05 10:43:25;;;;;;;1.77;1.10;;;;;;;17.74;37.09;101237.50;1737106;82;21339;-56
2021/09/05 10:46:39;;;;;;;2.75;0.80;;;;;;;17.76;36.88;101244.22;1744191;81;21186;-54
2021/09/05 10:49:49;;;;;;;2.55;0.93;;;;;;;17.53;36.43;101247.77;1741119;81;21394;-55
2021/09/05 10:52:54;;;;;;;1.65;0.90;;;;;;;17.28;36.76;101240.36;1737272;82;21185;-55
2021/09/05 10:56:33;;;;;;;2.87;1.12;;;;;;;17.19;37.01;101236.55;1736444;81;21367;-55
2021/09/05 10:59:41;;;;;;;1.82;0.90;;;;;;;17.30;36.84;101235.49;1736716;81;21976;-57
2021/09/05 11:03:16;;;;;;;1.42;0.78;;;;;;;17.54;36.12;101230.95;1749085;81;21749;-56
2021/09/05 11:06:40;;;;;;;2.00;0.85;;;;;;;17.70;36.13;101226.52;1815045;79;21195;-54
2021/09/05 11:09:50;;;;;;;1.00;0.80;;;;;;;17.71;36.03;101233.75;1817425;77;21366;-57
2021/09/05 11:12:56;;;;;;;1.37;0.90;;;;;;;17.49;36.93;101235.41;1789904;79;21181;-54
2021/09/05 11:16:02;;;;;;;1.82;0.90;;;;;;;17.27;37.21;101240.56;1767698;79;21212;-55
2021/09/05 11:19:10;;;;;;;1.37;0.88;;;;;;;17.14;37.61;101244.61;1747040;81;21211;-55
2021/09/05 11:22:17;;;;;;;2.15;1.20;;;;;;;17.09;38.12;101238.29;1737919;82;21220;-54
2021/09/05 11:25:31;;;;;;;4.35;0.90;;;;;;;17.27;38.26;101236.41;1765544;80;21217;-56
2021/09/05 11:28:37;;;;;;;;;;;;;;;17.59;38.08;101233.12;1735633;81;21423;-55
2021/09/05 11:31:55;;;;;;;1.90;1.20;;;;;;;17.91;36.82;101228.37;1752220;82;20625;-57
2021/09/05 11:35:03;;;;;;;2.30;1.30;;;;;;;18.25;35.88;101224.19;1725371;82;21269;-56
2021/09/05 11:38:11;;;;;;;3.65;1.30;;;;;;;18.42;34.43;101220.07;1725473;83;21229;-57
2021/09/05 11:41:22;;;;;;;4.67;1.20;;;;;;;18.49;34.44;101227.87;1726054;81;21722;-56
2021/09/05 11:44:43;;;;;;;1.32;0.70;;;;;;;18.48;33.50;101232.23;1725214;81;21237;-56
2021/09/05 11:47:52;;;;;;;1.42;0.90;;;;;;;18.30;32.15;101235.52;1766369;81;21233;-57
2021/09/05 11:50:57;;;;;;;2.77;0.70;;;;;;;18.13;31.48;101227.23;1781588;78;21336;-54
2021/09/05 11:54:14;;;;;;;3.85;1.00;;;;;;;18.07;31.31;101219.73;1762684;79;21747;-56
2021/09/05 11:57:21;;;;;;;1.80;0.80;;;;;;;18.16;32.13;101218.50;1721870;83;21215;-55
2021/09/05 12:00:47;;;;;;;1.65;0.60;;;;;;;18.28;31.82;101212.72;1751408;79;21896;-55
2021/09/05 12:03:56;;;;;;;2.47;1.20;;;;;;;18.28;31.47;101209.08;1731111;83;21212;-55
2021/09/05 12:07:04;;;;;;;1.47;1.07;;;;;;;18.19;31.61;101211.16;1764389;80;21185;-54
2021/09/05 12:10:13;;;;;;;1.52;1.07;;;;;;;18.23;31.70;101208.31;1775013;79;21243;-55
2021/09/05 12:13:22;;;;;;;2.08;0.85;;;;;;;18.34;32.36;101200.80;1738459;79;21414;-54
2021/09/05 12:16:34;;;;;;;2.22;0.88;;;;;;;18.58;32.59;101201.69;1731444;82;21296;-54
2021/09/05 12:19:42;;;;;;;2.08;1.05;;;;;;;18.81;31.69;101199.39;1730670;82;21181;-55
2021/09/05 12:22:55;;;;;;;3.58;0.60;;;;;;;18.86;31.54;101201.02;1709691;82;21212;-55
2021/09/05 12:26:06;;;;;;;1.25;0.80;;;;;;;18.77;30.25;101205.05;1736964;80;21280;-55
2021/09/05 12:29:13;;;;;;;2.22;1.00;;;;;;;18.78;30.67;101202.59;1732781;79;21251;-54
2021/09/05 12:32:22;;;;;;;3.33;1.82;;;;;;;18.85;30.12;101210.94;1730304;82;21355;-56
2021/09/05 12:35:34;;;;;;;0.98;0.82;;;;;;;18.85;29.65;101210.39;1761032;81;21777;-56
2021/09/05 12:38:44;;;;;;;2.12;1.27;;;;;;;18.82;30.02;101214.97;1760920;81;21644;-55
2021/09/05 12:41:50;;;;;;;1.15;0.68;;;;;;;18.83;30.65;101205.60;1767253;79;21307;-57
2021/09/05 12:44:59;;;;;;;1.57;0.70;;;;;;;18.81;30.63;101209.11;1781656;79;21782;-55
2021/09/05 12:48:25;;;;;;;2.40;1.10;;;;;;;18.85;30.71;101210.39;1781243;80;21824;-57
2021/09/05 12:51:31;;;;;;;6.97;5.08;;;;;;;18.91;30.84;101204.02;1784697;80;21977;-57
2021/09/05 12:54:41;;;;;;;4.35;2.10;;;;;;;18.92;31.16;101211.27;1792723;80;21257;-56
2021/09/05 12:57:47;;;;;;;4.03;2.00;;;;;;;18.99;30.99;101201.58;1769833;80;21334;-57
2021/09/05 13:00:54;;;;;;;3.35;1.85;;;;;;;19.01;30.90;101216.94;1766576;81;21204;-55
2021/09/05 13:04:00;;;;;;;1.57;0.98;;;;;;;18.96;30.05;101203.39;1766711;81;21820;-55
2021/09/05 13:07:05;;;;;;;2.85;0.90;;;;;;;18.93;30.84;101207.42;1765990;81;21199;-55
2021/09/05 13:10:10;;;;;;;2.02;1.05;;;;;;;18.92;30.93;101212.66;1766143;81;21574;-54
2021/09/05 13:13:15;;;;;;;1.42;0.80;;;;;;;18.78;30.44;101211.44;1764165;81;21381;-54
2021/09/05 13:16:22;;;;;;;2.77;1.55;;;;;;;18.62;30.06;101208.52;1766340;80;21379;-56
2021/09/05 13:19:29;;;;;;;1.22;0.98;;;;;;;18.42;30.75;101211.75;1766928;79;21232;-54
2021/09/05 13:22:34;;;;;;;4.12;1.40;;;;;;;18.25;31.05;101209.50;1767486;81;22143;-54
2021/09/05 13:25:42;;;;;;;3.55;1.90;;;;;;;18.16;31.27;101204.64;1767899;81;21755;-56
2021/09/05 13:28:48;;;;;;;2.45;1.20;;;;;;;18.25;31.39;101208.11;1764453;80;21355;-55
2021/09/05 13:31:56;;;;;;;0.80;0.70;;;;;;;18.38;31.35;101204.89;1794855;79;21754;-56
2021/09/05 13:35:02;;;;;;;2.50;1.10;;;;;;;18.56;30.36;101196.87;1777240;79;22020;-55
2021/09/05 13:38:10;;;;;;;2.05;0.90;;;;;;;18.75;29.80;101193.30;1775971;80;21854;-54
2021/09/05 13:41:15;;;;;;;5.67;0.98;;;;;;;18.96;29.89;101195.89;1798016;79;21184;-54
2021/09/05 13:44:21;;;;;;;1.67;0.78;;;;;;;19.18;29.77;101203.53;1768134;79;21215;-57
2021/09/05 13:47:28;;;;;;;3.83;1.92;;;;;;;19.33;29.10;101195.87;1761532;81;21242;-56
2021/09/05 13:50:35;;;;;;;1.70;1.20;;;;;;;19.45;28.51;101200.27;1764622;80;21915;-55
2021/09/05 13:53:44;;;;;;;2.95;0.98;;;;;;;19.51;28.41;101198.01;1765996;79;21444;-55
2021/09/05 13:56:51;;;;;;;5.03;1.17;;;;;;;19.47;28.27;101201.77;1765870;79;21224;-57
2021/09/05 13:59:56;;;;;;;4.05;1.30;;;;;;;19.40;28.18;101205.08;1765476;79;21217;-54
2021/09/05 14:03:07;;;;;;;6.30;1.50;;;;;;;19.29;29.54;101229.31;1737136;81;21327;-57
2021/09/05 14:06:14;;;;;;;20.05;3.17;;;;;;;18.86;33.10;101232.92;1736964;82;21987;-56
2021/09/05 14:09:23;;;;;;;2.92;1.50;;;;;;;18.46;34.82;101229.67;1737146;81;21773;-56
2021/09/05 14:12:29;;;;;;;4.37;1.57;;;;;;;18.20;36.31;101229.52;1759137;81;21185;-57
2021/09/05 14:15:38;;;;;;;5.22;1.30;;;;;;;18.01;37.50;101241.34;1744906;81;21233;-57
2021/09/05 14:18:46;;;;;;;4.10;1.70;;;;;;;17.81;38.28;101252.79;1723162;82;21206;-56
2021/09/05 14:21:51;;;;;;;5.78;1.57;;;;;;;17.67;38.60;101243.53;1730030;82;21422;-55
2021/09/05 14:24:59;;;;;;;3.87;1.17;;;;;;;17.49;38.91;101264.47;1734930;82;21225;-57
2021/09/05 14:28:08;;;;;;;3.12;1.17;;;;;;;17.33;39.37;101270.24;1790873;79;21193;-56
2021/09/05 14:31:22;;;;;;;3.20;1.40;;;;;;;17.20;38.70;101278.41;1799738;79;21212;-56
2021/09/05 14:35:17;;;;;;;5.22;1.20;;;;;;;16.98;38.77;101265.61;1758377;81;21770;-56
2021/09/05 14:48:06;;;;;;;3.08;1.20;;;;;;;16.38;39.53;101280.55;1761728;81;21233;-57
2021/09/05 14:51:23;;;;;;;2.17;1.00;;;;;;;16.29;39.90;101302.44;1764944;81;21236;-55
2021/09/05 14:57:31;;;;;;;2.42;1.35;;;;;;;16.16;40.63;101288.42;1765696;81;21228;-55
2021/09/05 15:00:36;;;;;;;3.80;0.90;;;;;;;16.11;40.97;101288.13;1773689;79;21197;-55